createdAt,value
2018-03-31T00:01:29.697Z,56.13
2018-03-31T00:03:56.756Z,55.98
2018-03-31T00:06:23.803Z,57.16
2018-03-31T00:08:50.888Z,58.57
2018-03-31T00:11:17.952Z,61.86
2018-03-31T00:13:45.034Z,64.32
2018-03-31T00:16:12.085Z,64.86
2018-03-31T00:18:39.141Z,65.73
2018-03-31T00:21:06.229Z,67.33
2018-03-31T00:23:33.276Z,69.13
2018-03-31T00:26:00.548Z,70.75
2018-03-31T00:28:27.600Z,70.72
2018-03-31T00:30:54.647Z,70.92
2018-03-31T00:33:21.720Z,71.52
2018-03-31T00:35:48.781Z,71.67
2018-03-31T00:38:15.850Z,72.92
2018-03-31T00:40:42.909Z,72.74
2018-03-31T00:43:09.988Z,72.83
2018-03-31T00:45:37.057Z,73.69
2018-03-31T00:48:04.103Z,73.81
2018-03-31T00:50:31.177Z,74.30
2018-03-31T00:52:58.235Z,73.67
2018-03-31T00:55:25.381Z,74.62
2018-03-31T00:57:52.398Z,74.90
2018-03-31T01:00:19.444Z,75.24
2018-03-31T01:02:46.516Z,75.49
2018-03-31T01:05:13.565Z,75.31
2018-03-31T01:07:41.016Z,75.77
2018-03-31T01:10:08.268Z,75.51
2018-03-31T01:12:35.327Z,75.72
2018-03-31T01:15:02.405Z,76.75
2018-03-31T01:17:29.461Z,76.98
2018-03-31T01:19:56.557Z,77.14
2018-03-31T01:22:23.608Z,77.12
2018-03-31T01:24:51.168Z,77.67
2018-03-31T01:27:18.237Z,77.54
2018-03-31T01:29:45.366Z,76.88
2018-03-31T01:32:12.432Z,76.68
2018-03-31T01:34:39.503Z,76.41
2018-03-31T01:37:06.821Z,76.64
2018-03-31T01:39:33.921Z,76.44
2018-03-31T01:42:00.967Z,76.46
2018-03-31T01:44:28.040Z,76.04
2018-03-31T01:46:55.086Z,75.35
2018-03-31T01:49:22.358Z,74.93
2018-03-31T01:51:49.407Z,74.90
2018-03-31T01:54:16.522Z,75.43
2018-03-31T01:56:43.603Z,74.63
2018-03-31T01:59:10.658Z,75.04
2018-03-31T02:01:37.732Z,75.05
2018-03-31T02:04:04.873Z,75.16
2018-03-31T02:06:31.965Z,75.72
2018-03-31T02:08:59.007Z,75.88
2018-03-31T02:11:26.095Z,76.10
2018-03-31T02:13:53.164Z,76.49
2018-03-31T02:16:20.222Z,76.54
2018-03-31T02:18:47.288Z,76.55
2018-03-31T02:21:14.356Z,76.87
2018-03-31T02:23:41.441Z,76.14
2018-03-31T02:26:08.492Z,76.29
2018-03-31T02:28:35.560Z,76.41
2018-03-31T02:31:02.625Z,76.01
2018-03-31T02:33:29.669Z,75.92
2018-03-31T02:35:56.745Z,75.42
2018-03-31T02:38:23.803Z,75.20
2018-03-31T02:40:50.995Z,74.84
2018-03-31T02:43:18.042Z,74.84
2018-03-31T02:45:45.091Z,75.34
2018-03-31T02:48:12.167Z,74.91
2018-03-31T02:50:39.217Z,74.46
2018-03-31T02:53:06.350Z,74.85
2018-03-31T02:55:33.404Z,74.46
2018-03-31T02:58:00.750Z,74.91
2018-03-31T03:00:27.809Z,74.48
2018-03-31T03:02:54.856Z,74.88
2018-03-31T03:05:21.934Z,74.67
2018-03-31T03:07:48.988Z,73.99
2018-03-31T03:10:16.061Z,74.80
2018-03-31T03:12:43.136Z,74.45
2018-03-31T03:15:10.475Z,74.82
2018-03-31T03:17:37.791Z,74.28
2018-03-31T03:20:04.840Z,74.24
2018-03-31T03:22:31.915Z,74.20
2018-03-31T03:24:58.960Z,75.25
2018-03-31T03:27:26.036Z,75.83
2018-03-31T03:29:53.093Z,76.14
2018-03-31T03:32:20.323Z,76.79
2018-03-31T03:34:47.373Z,76.96
2018-03-31T03:37:14.438Z,77.21
2018-03-31T03:39:41.508Z,76.95
2018-03-31T03:42:08.574Z,77.10
2018-03-31T03:44:35.648Z,76.98
2018-03-31T03:47:02.708Z,77.30
2018-03-31T03:49:30.072Z,77.45
2018-03-31T03:51:57.085Z,77.00
2018-03-31T03:54:24.129Z,76.81
2018-03-31T03:56:51.205Z,76.94
2018-03-31T03:59:18.257Z,77.97
2018-03-31T04:01:45.329Z,77.68
2018-03-31T04:04:12.384Z,77.49
2018-03-31T04:06:39.692Z,78.03
2018-03-31T04:09:06.736Z,78.55
2018-03-31T04:11:33.782Z,77.82
2018-03-31T04:14:00.853Z,77.85
2018-03-31T04:16:27.894Z,77.67
2018-03-31T04:18:54.952Z,77.49
2018-03-31T04:21:21.995Z,77.34
2018-03-31T04:23:49.264Z,77.96
2018-03-31T04:26:16.307Z,78.15
2018-03-31T04:28:43.353Z,78.85
2018-03-31T04:31:10.429Z,78.42
2018-03-31T04:33:37.484Z,78.13
2018-03-31T04:36:04.550Z,78.58
2018-03-31T04:38:31.596Z,78.75
2018-03-31T04:40:58.796Z,78.85
2018-03-31T04:43:25.843Z,78.81
2018-03-31T04:45:52.884Z,78.65
2018-03-31T04:48:19.995Z,78.36
2018-03-31T04:50:47.036Z,78.84
2018-03-31T04:53:14.108Z,79.18
2018-03-31T04:55:41.157Z,79.18
2018-03-31T04:58:08.232Z,78.78
2018-03-31T05:00:35.284Z,78.56
2018-03-31T05:03:02.339Z,79.09
2018-03-31T05:05:29.439Z,79.26
2018-03-31T05:07:56.495Z,79.86
2018-03-31T05:10:23.570Z,79.20
2018-03-31T05:12:50.620Z,79.43
2018-03-31T05:15:17.979Z,79.25
2018-03-31T05:17:45.030Z,79.34
2018-03-31T05:20:12.088Z,79.42
2018-03-31T05:22:39.160Z,79.11
2018-03-31T05:25:06.209Z,78.98
2018-03-31T05:27:33.275Z,79.16
2018-03-31T05:30:00.325Z,79.58
2018-03-31T05:32:27.531Z,79.06
2018-03-31T05:34:54.598Z,78.96
2018-03-31T05:37:21.652Z,78.58
2018-03-31T05:39:48.733Z,78.25
2018-03-31T05:42:15.784Z,78.76
2018-03-31T05:44:42.859Z,79.20
2018-03-31T05:47:09.916Z,78.64
2018-03-31T05:49:37.051Z,78.52
2018-03-31T05:52:04.085Z,78.21
2018-03-31T05:54:31.135Z,78.51
2018-03-31T05:56:58.215Z,78.23
2018-03-31T05:59:25.322Z,78.41
2018-03-31T06:01:52.400Z,78.20
2018-03-31T06:04:19.455Z,77.77
2018-03-31T06:06:46.805Z,78.49
2018-03-31T06:09:13.851Z,78.31
2018-03-31T06:11:40.899Z,77.25
2018-03-31T06:14:07.976Z,77.24
2018-03-31T06:16:35.028Z,77.17
2018-03-31T06:19:02.101Z,76.16
2018-03-31T06:21:29.160Z,76.58
2018-03-31T06:23:56.236Z,77.37
2018-03-31T06:26:23.289Z,77.51
2018-03-31T06:28:50.351Z,77.71
2018-03-31T06:31:17.427Z,77.56
2018-03-31T06:33:44.488Z,77.12
2018-03-31T06:36:11.560Z,77.37
2018-03-31T06:38:38.617Z,77.23
2018-03-31T06:41:06.218Z,77.18
2018-03-31T06:43:33.263Z,76.73
2018-03-31T06:46:00.314Z,77.01
2018-03-31T06:48:27.385Z,76.89
2018-03-31T06:50:54.444Z,76.52
2018-03-31T06:53:21.513Z,76.64
2018-03-31T06:55:48.565Z,76.78
2018-03-31T06:58:15.675Z,76.45
2018-03-31T07:00:42.724Z,77.01
2018-03-31T07:03:09.783Z,76.42
2018-03-31T07:05:36.852Z,76.48
2018-03-31T07:08:03.901Z,76.06
2018-03-31T07:10:31.487Z,76.29
2018-03-31T07:12:58.544Z,76.33
2018-03-31T07:15:25.840Z,75.98
2018-03-31T07:17:52.850Z,76.27
2018-03-31T07:20:19.905Z,76.07
2018-03-31T07:22:46.978Z,76.73
2018-03-31T07:25:14.027Z,75.68
2018-03-31T07:27:41.110Z,75.79
2018-03-31T07:30:08.163Z,76.11
2018-03-31T07:32:35.428Z,75.36
2018-03-31T07:35:02.476Z,75.29
2018-03-31T07:37:29.523Z,76.03
2018-03-31T07:39:56.599Z,75.80
2018-03-31T07:42:23.656Z,75.57
2018-03-31T07:44:50.737Z,75.19
2018-03-31T07:47:17.807Z,75.93
2018-03-31T07:49:44.900Z,75.86
2018-03-31T07:52:11.958Z,75.36
2018-03-31T07:54:39.077Z,75.33
2018-03-31T07:57:06.153Z,74.85
2018-03-31T07:59:33.204Z,74.60
2018-03-31T08:02:00.273Z,74.71
2018-03-31T08:04:27.370Z,75.33
2018-03-31T08:06:54.612Z,74.29
2018-03-31T08:09:21.671Z,75.06
2018-03-31T08:11:48.723Z,73.71
2018-03-31T08:14:15.793Z,73.27
2018-03-31T08:16:42.900Z,73.40
2018-03-31T08:19:11.491Z,73.80
2018-03-31T08:21:38.543Z,74.12
2018-03-31T08:24:05.641Z,73.94
2018-03-31T08:26:32.697Z,73.53
2018-03-31T08:28:59.758Z,72.37
2018-03-31T08:31:26.832Z,73.10
2018-03-31T08:33:53.881Z,72.26
2018-03-31T08:36:20.956Z,73.35
2018-03-31T08:38:48.016Z,72.76
2018-03-31T08:41:15.541Z,73.25
2018-03-31T08:43:42.593Z,73.21
2018-03-31T08:46:09.644Z,72.43
2018-03-31T08:48:36.717Z,72.98
2018-03-31T08:51:03.765Z,71.97
2018-03-31T08:53:30.835Z,72.28
2018-03-31T08:55:57.892Z,72.08
2018-03-31T08:58:25.195Z,71.33
2018-03-31T09:00:52.243Z,71.12
2018-03-31T09:03:19.308Z,71.38
2018-03-31T09:05:46.380Z,70.66
2018-03-31T09:08:13.428Z,69.76
2018-03-31T09:10:40.496Z,69.85
2018-03-31T09:13:07.540Z,71.08
2018-03-31T09:15:34.601Z,70.81
2018-03-31T09:18:01.685Z,69.64
2018-03-31T09:20:28.745Z,68.98
2018-03-31T09:22:55.836Z,68.51
2018-03-31T09:25:22.892Z,70.06
2018-03-31T09:27:49.936Z,69.49
2018-03-31T09:30:17.003Z,69.20
2018-03-31T09:32:44.056Z,69.82
2018-03-31T09:35:11.312Z,68.40
2018-03-31T09:37:38.350Z,67.90
2018-03-31T09:40:05.416Z,68.32
2018-03-31T09:42:32.494Z,68.94
2018-03-31T09:44:59.550Z,68.61
2018-03-31T09:47:26.616Z,67.95
2018-03-31T09:49:53.676Z,68.53
2018-03-31T09:52:20.772Z,67.81
2018-03-31T09:54:47.811Z,68.01
2018-03-31T09:57:14.863Z,68.41
2018-03-31T09:59:41.933Z,68.36
2018-03-31T10:02:08.985Z,68.40
2018-03-31T10:04:36.061Z,68.33
2018-03-31T10:07:03.107Z,67.20
2018-03-31T10:09:30.185Z,67.56
2018-03-31T10:11:57.249Z,67.87
2018-03-31T10:14:24.295Z,67.41
2018-03-31T10:16:51.466Z,67.46
2018-03-31T10:19:18.531Z,67.36
2018-03-31T10:21:45.756Z,67.20
2018-03-31T10:24:12.807Z,67.05
2018-03-31T10:26:39.895Z,66.85
2018-03-31T10:29:06.955Z,67.12
2018-03-31T10:31:34.012Z,67.71
2018-03-31T10:34:01.088Z,67.24
2018-03-31T10:36:28.144Z,67.39
2018-03-31T10:38:55.234Z,66.53
2018-03-31T10:41:22.284Z,66.16
2018-03-31T10:43:49.359Z,65.73
2018-03-31T10:46:16.413Z,65.53
2018-03-31T10:48:43.474Z,66.06
2018-03-31T10:51:10.544Z,65.24
2018-03-31T10:53:37.595Z,64.71
2018-03-31T10:56:04.665Z,64.95
2018-03-31T10:58:31.716Z,65.11
2018-03-31T11:00:58.812Z,64.82
2018-03-31T11:03:25.873Z,65.01
2018-03-31T11:05:52.928Z,64.67
2018-03-31T11:08:20.008Z,64.76
2018-03-31T11:10:47.060Z,64.46
2018-03-31T11:13:14.128Z,65.17
2018-03-31T11:15:41.177Z,65.30
2018-03-31T11:18:09.185Z,65.08
2018-03-31T11:20:36.239Z,64.28
2018-03-31T11:23:03.296Z,64.07
2018-03-31T11:25:30.364Z,64.79
2018-03-31T11:27:57.422Z,64.17
2018-03-31T11:30:24.495Z,64.12
2018-03-31T11:32:51.793Z,64.17
2018-03-31T11:35:18.900Z,63.22
2018-03-31T11:37:45.960Z,63.33
2018-03-31T11:40:13.003Z,62.82
2018-03-31T11:42:40.068Z,62.51
2018-03-31T11:45:07.116Z,62.95
2018-03-31T11:47:34.194Z,61.51
2018-03-31T11:50:01.298Z,61.36
2018-03-31T11:52:28.385Z,61.07
2018-03-31T11:54:55.446Z,61.16
2018-03-31T11:57:22.505Z,60.54
2018-03-31T11:59:49.596Z,58.70
2018-03-31T12:02:16.648Z,59.57
2018-03-31T12:04:43.728Z,59.26
2018-03-31T12:07:10.896Z,59.65
2018-03-31T12:09:38.116Z,58.26
2018-03-31T12:12:05.167Z,57.62
2018-03-31T12:14:32.223Z,58.42
2018-03-31T12:16:59.292Z,58.21
2018-03-31T12:19:26.337Z,57.83
2018-03-31T12:21:53.416Z,58.37
2018-03-31T12:24:20.464Z,58.06
2018-03-31T12:26:47.751Z,56.73
2018-03-31T12:29:14.817Z,56.32
2018-03-31T12:31:41.866Z,56.22
2018-03-31T12:34:09.163Z,55.82
2018-03-31T12:36:36.236Z,56.42
2018-03-31T12:39:03.316Z,56.19
2018-03-31T12:41:30.429Z,55.17
2018-03-31T12:43:57.580Z,54.85
2018-03-31T12:46:24.634Z,55.49
2018-03-31T12:48:51.684Z,54.12
2018-03-31T12:51:18.761Z,53.27
2018-03-31T12:53:45.816Z,52.65
2018-03-31T12:56:12.892Z,52.41
2018-03-31T12:58:39.952Z,52.37
2018-03-31T13:01:07.021Z,52.72
2018-03-31T13:03:34.076Z,53.46
2018-03-31T13:06:01.128Z,53.42
2018-03-31T13:08:28.208Z,56.28
2018-03-31T13:10:55.260Z,58.00
2018-03-31T13:13:22.357Z,56.61
2018-03-31T13:15:49.410Z,58.29
2018-03-31T13:18:16.779Z,59.97
2018-03-31T13:20:43.847Z,62.34
2018-03-31T13:23:10.896Z,63.44
2018-03-31T13:25:37.967Z,67.69
2018-03-31T13:28:05.024Z,67.25
2018-03-31T13:30:32.100Z,69.49
2018-03-31T13:32:59.151Z,67.81
2018-03-31T13:35:26.244Z,68.36
2018-03-31T13:37:53.377Z,69.26
2018-03-31T13:40:20.425Z,68.87
2018-03-31T13:42:47.513Z,67.80
2018-03-31T13:45:14.568Z,67.38
2018-03-31T13:47:41.642Z,67.58
2018-03-31T13:50:08.688Z,65.23
2018-03-31T13:52:35.954Z,64.59
2018-03-31T13:55:03.039Z,60.33
2018-03-31T13:57:30.096Z,58.89
2018-03-31T13:59:57.177Z,55.72
2018-03-31T14:02:24.256Z,49.27
2018-03-31T14:04:51.813Z,50.55
2018-03-31T14:07:18.867Z,52.24
2018-03-31T14:09:45.917Z,55.85
2018-03-31T14:12:13.067Z,57.35
2018-03-31T14:14:40.123Z,57.97
2018-03-31T14:17:07.212Z,60.58
2018-03-31T14:19:34.258Z,60.34
2018-03-31T14:22:01.312Z,61.52
2018-03-31T14:24:28.385Z,61.03
2018-03-31T14:26:55.438Z,60.32
2018-03-31T14:29:22.611Z,60.83
2018-03-31T14:31:49.661Z,61.03
2018-03-31T14:34:16.744Z,61.40
2018-03-31T14:36:43.819Z,61.54
2018-03-31T14:39:10.877Z,59.69
2018-03-31T14:41:37.950Z,59.83
2018-03-31T14:44:04.996Z,60.29
2018-03-31T14:46:32.348Z,57.83
2018-03-31T14:48:59.455Z,58.32
2018-03-31T14:51:26.492Z,58.34
2018-03-31T14:53:53.576Z,57.95
2018-03-31T14:56:20.654Z,57.44
2018-03-31T14:58:47.774Z,56.41
2018-03-31T15:01:14.839Z,57.18
2018-03-31T15:03:42.188Z,57.03
2018-03-31T15:06:09.244Z,56.87
2018-03-31T15:08:36.295Z,57.48
2018-03-31T15:11:03.366Z,58.41
2018-03-31T15:13:30.424Z,58.79
2018-03-31T15:15:57.541Z,58.50
2018-03-31T15:18:24.593Z,57.97
2018-03-31T15:20:51.811Z,57.94
2018-03-31T15:23:18.869Z,58.65
2018-03-31T15:25:45.919Z,58.77
2018-03-31T15:28:12.999Z,58.46
2018-03-31T15:30:40.057Z,58.74
2018-03-31T15:33:07.129Z,59.48
2018-03-31T15:35:34.190Z,60.11
2018-03-31T15:38:01.292Z,60.85
2018-03-31T15:40:28.345Z,60.64
2018-03-31T15:42:55.401Z,60.28
2018-03-31T15:45:24.132Z,60.95
2018-03-31T15:47:51.199Z,60.55
2018-03-31T15:50:18.276Z,60.07
2018-03-31T15:52:45.334Z,60.33
2018-03-31T15:55:12.922Z,59.60
2018-03-31T15:57:40.017Z,60.23
2018-03-31T16:00:07.066Z,59.22
2018-03-31T16:02:34.151Z,59.51
2018-03-31T16:05:01.213Z,59.16
2018-03-31T16:07:28.295Z,58.32
2018-03-31T16:09:55.339Z,57.97
2018-03-31T16:12:22.419Z,58.23
2018-03-31T16:14:49.516Z,57.92
2018-03-31T16:17:16.974Z,58.22
2018-03-31T16:19:44.051Z,58.34
2018-03-31T16:22:11.099Z,58.13
2018-03-31T16:24:38.179Z,58.31
2018-03-31T16:27:05.228Z,58.13
2018-03-31T16:29:32.656Z,56.81
2018-03-31T16:31:59.717Z,55.78
2018-03-31T16:34:26.765Z,56.30
2018-03-31T16:36:53.909Z,56.47
2018-03-31T16:39:20.959Z,55.36
2018-03-31T16:41:48.037Z,55.76
2018-03-31T16:44:15.089Z,56.08
2018-03-31T16:46:42.521Z,56.18
2018-03-31T16:49:09.597Z,56.66
2018-03-31T16:51:36.648Z,57.26
2018-03-31T16:54:03.952Z,57.87
2018-03-31T16:56:31.000Z,58.67
2018-03-31T16:58:58.071Z,58.48
2018-03-31T17:01:25.137Z,58.54
2018-03-31T17:03:52.373Z,58.86
2018-03-31T17:06:19.427Z,59.42
2018-03-31T17:08:46.509Z,59.54
2018-03-31T17:11:13.580Z,59.94
2018-03-31T17:13:40.632Z,59.99
2018-03-31T17:16:07.702Z,59.65
2018-03-31T17:18:34.761Z,59.91
2018-03-31T17:21:01.868Z,59.79
2018-03-31T17:23:28.929Z,60.09
2018-03-31T17:25:56.576Z,60.52
2018-03-31T17:28:23.653Z,61.20
2018-03-31T17:30:50.696Z,61.45
2018-03-31T17:33:17.776Z,61.84
2018-03-31T17:35:44.829Z,62.23
2018-03-31T17:38:11.877Z,62.21
2018-03-31T17:40:38.958Z,61.99
2018-03-31T17:43:06.006Z,62.54
2018-03-31T17:45:33.300Z,62.48
2018-03-31T17:48:00.364Z,62.62
2018-03-31T17:50:27.419Z,62.52
2018-03-31T17:52:54.487Z,63.26
2018-03-31T17:55:21.561Z,63.51
2018-03-31T17:57:48.732Z,63.95
2018-03-31T18:00:15.801Z,63.43
2018-03-31T18:02:43.132Z,63.62
2018-03-31T18:05:10.251Z,63.99
2018-03-31T18:07:37.356Z,63.86
2018-03-31T18:10:04.483Z,65.10
2018-03-31T18:12:31.601Z,65.09
2018-03-31T18:14:58.713Z,65.04
2018-03-31T18:17:25.762Z,65.06
2018-03-31T18:19:52.826Z,65.16
2018-03-31T18:22:20.013Z,65.43
2018-03-31T18:24:47.079Z,63.92
2018-03-31T18:27:14.150Z,64.77
2018-03-31T18:29:41.211Z,64.77
2018-03-31T18:32:08.429Z,64.46
2018-03-31T18:34:35.497Z,64.95
2018-03-31T18:37:02.561Z,65.57
2018-03-31T18:39:29.625Z,64.95
2018-03-31T18:41:56.670Z,65.37
2018-03-31T18:44:23.758Z,65.27
2018-03-31T18:46:50.813Z,65.99
2018-03-31T18:49:17.929Z,66.04
2018-03-31T18:51:44.993Z,66.01
2018-03-31T18:54:12.044Z,66.56
2018-03-31T18:56:39.109Z,66.77
2018-03-31T18:59:06.160Z,67.10
2018-03-31T19:01:33.260Z,67.35
2018-03-31T19:04:00.314Z,67.48
2018-03-31T19:06:27.512Z,67.65
2018-03-31T19:08:54.571Z,67.84
2018-03-31T19:11:21.630Z,68.03
2018-03-31T19:13:48.849Z,68.18
2018-03-31T19:16:15.908Z,68.28
2018-03-31T19:18:42.985Z,67.88
2018-03-31T19:21:10.039Z,67.59
2018-03-31T19:23:37.127Z,67.48
2018-03-31T19:26:04.172Z,67.31
2018-03-31T19:28:31.244Z,68.04
2018-03-31T19:30:58.301Z,68.30
2018-03-31T19:33:25.372Z,68.24
2018-03-31T19:35:57.912Z,68.22
2018-03-31T19:38:25.005Z,68.33
2018-03-31T19:40:52.059Z,68.50
2018-03-31T19:43:19.134Z,68.48
2018-03-31T19:45:46.209Z,68.44
2018-03-31T19:48:13.262Z,68.66
2018-03-31T19:50:40.347Z,69.37
2018-03-31T19:53:07.684Z,69.35
2018-03-31T19:55:34.782Z,69.25
2018-03-31T19:58:01.839Z,69.06
2018-03-31T20:00:28.897Z,69.13
2018-03-31T20:02:55.979Z,69.27
2018-03-31T20:05:23.027Z,69.22
2018-03-31T20:07:50.098Z,69.29
2018-03-31T20:10:17.177Z,69.15
2018-03-31T20:12:44.457Z,68.97
2018-03-31T20:15:11.510Z,68.83
2018-03-31T20:17:38.565Z,68.67
2018-03-31T20:20:05.648Z,68.62
2018-03-31T20:22:32.695Z,68.72
2018-03-31T20:24:59.777Z,68.99
2018-03-31T20:27:26.837Z,69.13
2018-03-31T20:29:54.316Z,69.15
2018-03-31T20:32:21.384Z,69.53
2018-03-31T20:34:48.438Z,69.69
2018-03-31T20:37:15.516Z,69.89
2018-03-31T20:39:42.571Z,70.13
2018-03-31T20:42:09.648Z,70.75
2018-03-31T20:44:36.708Z,71.00
2018-03-31T20:47:03.797Z,71.21
2018-03-31T20:49:30.850Z,70.89
2018-03-31T20:51:57.910Z,70.80
2018-03-31T20:54:24.993Z,70.96
2018-03-31T20:56:52.049Z,70.99
2018-03-31T20:59:19.124Z,71.20
2018-03-31T21:01:46.249Z,71.50
2018-03-31T21:04:13.342Z,71.63
2018-03-31T21:06:40.392Z,71.85
2018-03-31T21:09:07.453Z,72.27
2018-03-31T21:11:34.544Z,72.53
2018-03-31T21:14:01.609Z,72.69
2018-03-31T21:16:28.740Z,72.81
2018-03-31T21:18:55.791Z,72.80
2018-03-31T21:21:22.875Z,72.75
2018-03-31T21:23:49.934Z,72.86
2018-03-31T21:26:17.002Z,73.03
2018-03-31T21:28:44.183Z,73.11
2018-03-31T21:31:12.255Z,73.05
2018-03-31T21:33:39.342Z,72.93
2018-03-31T21:36:06.398Z,72.96
2018-03-31T21:38:33.800Z,72.91
2018-03-31T21:41:00.860Z,72.94
2018-03-31T21:43:27.909Z,73.14
2018-03-31T21:45:54.982Z,73.44
2018-03-31T21:48:22.052Z,73.48
2018-03-31T21:50:49.134Z,73.52
2018-03-31T21:53:16.428Z,73.51
2018-03-31T21:55:43.757Z,73.61
2018-03-31T21:58:10.837Z,73.80
2018-03-31T22:00:37.893Z,73.81
2018-03-31T22:03:04.964Z,73.81
2018-03-31T22:05:32.024Z,73.69
2018-03-31T22:07:59.103Z,73.86
2018-03-31T22:10:26.155Z,73.65
2018-03-31T22:12:53.439Z,73.60
2018-03-31T22:15:25.892Z,73.55
2018-03-31T22:17:52.968Z,73.67
2018-03-31T22:20:20.051Z,73.61
2018-03-31T22:22:47.108Z,73.79
2018-03-31T22:25:14.194Z,73.97
2018-03-31T22:27:41.323Z,74.01
2018-03-31T22:30:08.395Z,74.14
2018-03-31T22:32:35.736Z,74.55
2018-03-31T22:35:02.969Z,74.26
2018-03-31T22:37:30.033Z,74.58
2018-03-31T22:39:57.091Z,74.85
2018-03-31T22:42:24.165Z,74.75
2018-03-31T22:44:51.220Z,74.62
2018-03-31T22:47:18.301Z,74.45
2018-03-31T22:49:45.352Z,74.19
2018-03-31T22:52:12.580Z,74.06
2018-03-31T22:54:39.636Z,73.90
2018-03-31T22:57:06.691Z,74.08
2018-03-31T22:59:33.780Z,73.89
2018-03-31T23:02:00.832Z,73.90
2018-03-31T23:04:27.946Z,73.71
2018-03-31T23:06:55.013Z,73.43
2018-03-31T23:09:22.399Z,73.39
2018-03-31T23:11:49.512Z,73.80
2018-03-31T23:14:16.574Z,73.69
2018-03-31T23:16:43.651Z,73.78
2018-03-31T23:19:10.715Z,73.75
2018-03-31T23:21:37.798Z,73.68
2018-03-31T23:24:05.206Z,73.75
2018-03-31T23:26:32.289Z,73.51
2018-03-31T23:28:59.377Z,73.68
2018-03-31T23:31:26.439Z,73.64
2018-03-31T23:33:53.511Z,73.71
2018-03-31T23:36:20.560Z,73.43
2018-03-31T23:38:47.858Z,73.76
2018-03-31T23:41:14.928Z,74.03
2018-03-31T23:43:41.996Z,74.34
2018-03-31T23:46:09.100Z,74.56
2018-03-31T23:48:36.164Z,74.52
2018-03-31T23:51:03.456Z,74.55
2018-03-31T23:53:30.523Z,74.49
2018-03-31T23:55:58.928Z,74.33
2018-03-31T23:58:26.006Z,74.27
